createdAt,value
2022-08-25T00:06:46.672Z,13.08
2022-08-25T00:46:46.621Z,13.08
2022-08-25T01:06:46.593Z,13.08
2022-08-25T01:46:46.014Z,13.08
2022-08-25T02:06:46.505Z,13.08
2022-08-25T03:26:45.635Z,13.08
2022-08-25T04:26:46.332Z,13.08
2022-08-25T04:46:46.312Z,13.08
2022-08-25T05:26:46.274Z,13.08
2022-08-25T05:46:46.095Z,13.08
2022-08-25T06:06:45.696Z,13.08
2022-08-25T06:26:46.177Z,13.08
2022-08-25T07:06:46.122Z,13.08
2022-08-25T07:26:46.084Z,13.08
2022-08-25T07:46:46.098Z,13.08
2022-08-25T08:26:58.049Z,13.08
2022-08-25T09:06:45.935Z,13.08
2022-08-25T09:26:45.902Z,13.08
2022-08-25T11:26:45.748Z,13.09
2022-08-25T12:06:45.718Z,13.07
2022-08-25T12:26:45.991Z,13.08
2022-08-25T13:06:45.735Z,13.05
2022-08-25T13:26:47.331Z,13.05
2022-08-25T13:46:45.662Z,13.05
2022-08-25T14:06:45.656Z,13.05
2022-08-25T14:26:54.174Z,13.04
2022-08-25T14:46:45.636Z,13.04
2022-08-25T15:06:45.638Z,13.03
2022-08-25T15:26:45.131Z,13.04
2022-08-25T15:46:47.065Z,13.03
2022-08-25T16:06:45.598Z,13.03
2022-08-25T16:26:48.360Z,13.03
2022-08-25T16:46:45.562Z,13.02
2022-08-25T17:06:49.282Z,13.02
2022-08-25T17:26:44.365Z,13.01
2022-08-25T17:46:47.232Z,13.01
2022-08-25T18:06:45.428Z,12.97
2022-08-25T18:26:45.265Z,13.02
2022-08-25T18:46:45.611Z,12.98
2022-08-25T19:06:45.331Z,13.02
2022-08-25T19:26:45.164Z,13.01
2022-08-25T19:46:45.269Z,13.02
2022-08-25T20:06:48.102Z,13.02
2022-08-25T20:26:45.217Z,13.02
2022-08-25T20:46:44.409Z,13.02
2022-08-25T21:06:45.136Z,13.02
2022-08-25T21:26:47.675Z,13.01
2022-08-25T21:46:45.548Z,13.01
2022-08-25T22:06:44.472Z,13.01
2022-08-25T22:26:46.617Z,13.01
2022-08-25T22:46:45.251Z,13.01
2022-08-25T23:06:44.968Z,13.01
2022-08-25T23:26:45.260Z,13.02
2022-08-25T23:46:44.146Z,13.01
